sensor_id;sensor_type;location;lat;lon;timestamp;P1;durP1;ratioP1;P2;durP2;ratioP2
29422;SDS011;16399;51.686;8.684;2023-04-25T00:02:07;14.85;;;5.17;;
29422;SDS011;16399;51.686;8.684;2023-04-25T00:05:09;21.07;;;5.17;;
29422;SDS011;16399;51.686;8.684;2023-04-25T00:08:12;12.40;;;5.42;;
29422;SDS011;16399;51.686;8.684;2023-04-25T00:11:14;18.15;;;5.67;;
29422;SDS011;16399;51.686;8.684;2023-04-25T00:14:16;17.77;;;6.12;;
29422;SDS011;16399;51.686;8.684;2023-04-25T00:17:19;12.93;;;4.70;;
29422;SDS011;16399;51.686;8.684;2023-04-25T00:20:22;12.30;;;4.55;;
29422;SDS011;16399;51.686;8.684;2023-04-25T00:23:25;13.00;;;4.33;;
29422;SDS011;16399;51.686;8.684;2023-04-25T00:26:27;13.40;;;4.65;;
29422;SDS011;16399;51.686;8.684;2023-04-25T00:29:29;15.50;;;5.40;;
29422;SDS011;16399;51.686;8.684;2023-04-25T00:32:32;16.48;;;5.50;;
29422;SDS011;16399;51.686;8.684;2023-04-25T00:35:34;26.62;;;6.08;;
29422;SDS011;16399;51.686;8.684;2023-04-25T00:38:37;19.20;;;5.85;;
29422;SDS011;16399;51.686;8.684;2023-04-25T00:41:39;18.20;;;5.90;;
29422;SDS011;16399;51.686;8.684;2023-04-25T00:44:42;17.57;;;5.87;;
29422;SDS011;16399;51.686;8.684;2023-04-25T00:47:45;18.12;;;6.28;;
29422;SDS011;16399;51.686;8.684;2023-04-25T00:50:53;15.20;;;6.17;;
29422;SDS011;16399;51.686;8.684;2023-04-25T00:53:57;19.52;;;6.42;;
29422;SDS011;16399;51.686;8.684;2023-04-25T00:56:59;17.67;;;7.08;;
29422;SDS011;16399;51.686;8.684;2023-04-25T01:00:03;14.73;;;6.40;;
29422;SDS011;16399;51.686;8.684;2023-04-25T01:03:10;15.70;;;6.95;;
29422;SDS011;16399;51.686;8.684;2023-04-25T01:06:12;17.80;;;6.67;;
29422;SDS011;16399;51.686;8.684;2023-04-25T01:09:15;16.52;;;6.85;;
29422;SDS011;16399;51.686;8.684;2023-04-25T01:12:18;20.32;;;6.50;;
29422;SDS011;16399;51.686;8.684;2023-04-25T01:15:20;24.18;;;7.95;;
29422;SDS011;16399;51.686;8.684;2023-04-25T01:18:22;18.67;;;7.30;;
29422;SDS011;16399;51.686;8.684;2023-04-25T01:21:25;14.87;;;6.87;;
29422;SDS011;16399;51.686;8.684;2023-04-25T01:24:31;18.53;;;7.33;;
29422;SDS011;16399;51.686;8.684;2023-04-25T01:27:33;17.02;;;7.00;;
29422;SDS011;16399;51.686;8.684;2023-04-25T01:30:38;21.00;;;7.78;;
29422;SDS011;16399;51.686;8.684;2023-04-25T01:33:40;14.07;;;7.00;;
29422;SDS011;16399;51.686;8.684;2023-04-25T01:36:43;15.98;;;7.17;;
29422;SDS011;16399;51.686;8.684;2023-04-25T01:39:45;20.40;;;7.37;;
29422;SDS011;16399;51.686;8.684;2023-04-25T01:42:49;17.87;;;7.37;;
29422;SDS011;16399;51.686;8.684;2023-04-25T01:45:52;20.62;;;8.90;;
29422;SDS011;16399;51.686;8.684;2023-04-25T01:48:54;19.23;;;7.45;;
29422;SDS011;16399;51.686;8.684;2023-04-25T01:51:57;16.73;;;7.12;;
29422;SDS011;16399;51.686;8.684;2023-04-25T01:54:59;15.53;;;7.30;;
29422;SDS011;16399;51.686;8.684;2023-04-25T01:58:03;22.55;;;8.18;;
29422;SDS011;16399;51.686;8.684;2023-04-25T02:01:09;21.80;;;8.55;;
29422;SDS011;16399;51.686;8.684;2023-04-25T02:04:12;20.90;;;7.65;;
29422;SDS011;16399;51.686;8.684;2023-04-25T02:07:14;20.37;;;8.48;;
29422;SDS011;16399;51.686;8.684;2023-04-25T02:10:16;18.62;;;8.73;;
29422;SDS011;16399;51.686;8.684;2023-04-25T02:13:18;20.77;;;7.72;;
29422;SDS011;16399;51.686;8.684;2023-04-25T02:16:21;16.75;;;8.08;;
29422;SDS011;16399;51.686;8.684;2023-04-25T02:19:23;22.35;;;9.03;;
29422;SDS011;16399;51.686;8.684;2023-04-25T02:22:26;19.75;;;7.75;;
29422;SDS011;16399;51.686;8.684;2023-04-25T02:25:30;20.50;;;8.33;;
29422;SDS011;16399;51.686;8.684;2023-04-25T02:28:32;21.25;;;8.78;;
29422;SDS011;16399;51.686;8.684;2023-04-25T02:31:34;18.30;;;7.65;;
29422;SDS011;16399;51.686;8.684;2023-04-25T02:34:37;18.00;;;8.58;;
29422;SDS011;16399;51.686;8.684;2023-04-25T02:37:39;18.82;;;8.15;;
29422;SDS011;16399;51.686;8.684;2023-04-25T02:40:42;19.70;;;9.08;;
29422;SDS011;16399;51.686;8.684;2023-04-25T02:43:44;20.08;;;9.63;;
29422;SDS011;16399;51.686;8.684;2023-04-25T02:46:46;27.10;;;9.58;;
29422;SDS011;16399;51.686;8.684;2023-04-25T02:49:48;26.60;;;10.18;;
29422;SDS011;16399;51.686;8.684;2023-04-25T02:52:51;20.10;;;9.93;;
29422;SDS011;16399;51.686;8.684;2023-04-25T02:55:53;21.07;;;10.05;;
29422;SDS011;16399;51.686;8.684;2023-04-25T02:58:57;21.47;;;11.00;;
29422;SDS011;16399;51.686;8.684;2023-04-25T03:02:00;19.62;;;9.63;;
29422;SDS011;16399;51.686;8.684;2023-04-25T03:05:02;18.25;;;9.50;;
29422;SDS011;16399;51.686;8.684;2023-04-25T03:08:05;22.25;;;10.63;;
29422;SDS011;16399;51.686;8.684;2023-04-25T03:11:07;28.17;;;11.18;;
29422;SDS011;16399;51.686;8.684;2023-04-25T03:14:10;22.95;;;10.95;;
29422;SDS011;16399;51.686;8.684;2023-04-25T03:17:12;21.85;;;10.32;;
29422;SDS011;16399;51.686;8.684;2023-04-25T03:20:14;24.12;;;12.63;;
29422;SDS011;16399;51.686;8.684;2023-04-25T03:23:17;25.00;;;11.50;;
29422;SDS011;16399;51.686;8.684;2023-04-25T03:26:19;28.20;;;13.68;;
29422;SDS011;16399;51.686;8.684;2023-04-25T03:29:22;21.90;;;11.33;;
29422;SDS011;16399;51.686;8.684;2023-04-25T03:32:25;22.70;;;12.80;;
29422;SDS011;16399;51.686;8.684;2023-04-25T03:35:29;31.97;;;18.05;;
29422;SDS011;16399;51.686;8.684;2023-04-25T03:38:31;22.37;;;12.73;;
29422;SDS011;16399;51.686;8.684;2023-04-25T03:41:33;21.00;;;11.12;;
29422;SDS011;16399;51.686;8.684;2023-04-25T03:44:36;17.98;;;10.18;;
29422;SDS011;16399;51.686;8.684;2023-04-25T03:47:38;21.17;;;10.55;;
29422;SDS011;16399;51.686;8.684;2023-04-25T03:50:40;16.00;;;9.35;;
29422;SDS011;16399;51.686;8.684;2023-04-25T03:53:42;15.35;;;9.85;;
29422;SDS011;16399;51.686;8.684;2023-04-25T03:56:45;19.42;;;10.03;;
29422;SDS011;16399;51.686;8.684;2023-04-25T03:59:47;18.27;;;9.68;;
29422;SDS011;16399;51.686;8.684;2023-04-25T04:02:49;19.50;;;10.23;;
29422;SDS011;16399;51.686;8.684;2023-04-25T04:05:52;17.77;;;10.25;;
29422;SDS011;16399;51.686;8.684;2023-04-25T04:08:54;19.90;;;10.35;;
29422;SDS011;16399;51.686;8.684;2023-04-25T04:11:57;19.62;;;8.78;;
29422;SDS011;16399;51.686;8.684;2023-04-25T04:14:59;14.98;;;8.33;;
29422;SDS011;16399;51.686;8.684;2023-04-25T04:18:02;14.83;;;7.90;;
29422;SDS011;16399;51.686;8.684;2023-04-25T04:21:04;15.23;;;8.35;;
29422;SDS011;16399;51.686;8.684;2023-04-25T04:24:06;16.65;;;7.87;;
29422;SDS011;16399;51.686;8.684;2023-04-25T04:27:09;15.90;;;7.75;;
29422;SDS011;16399;51.686;8.684;2023-04-25T04:30:13;12.40;;;7.13;;
29422;SDS011;16399;51.686;8.684;2023-04-25T04:33:16;15.85;;;7.58;;
29422;SDS011;16399;51.686;8.684;2023-04-25T04:36:20;13.78;;;7.22;;
29422;SDS011;16399;51.686;8.684;2023-04-25T04:39:23;17.32;;;7.28;;
29422;SDS011;16399;51.686;8.684;2023-04-25T04:42:26;21.00;;;7.67;;
29422;SDS011;16399;51.686;8.684;2023-04-25T04:45:28;14.63;;;7.12;;
29422;SDS011;16399;51.686;8.684;2023-04-25T04:48:31;15.10;;;6.50;;
29422;SDS011;16399;51.686;8.684;2023-04-25T04:51:34;17.77;;;6.05;;
29422;SDS011;16399;51.686;8.684;2023-04-25T04:54:37;14.23;;;5.72;;
29422;SDS011;16399;51.686;8.684;2023-04-25T04:57:39;18.05;;;6.37;;
29422;SDS011;16399;51.686;8.684;2023-04-25T05:00:41;14.68;;;5.75;;
29422;SDS011;16399;51.686;8.684;2023-04-25T05:03:44;18.12;;;5.47;;
29422;SDS011;16399;51.686;8.684;2023-04-25T05:06:46;17.10;;;5.30;;
29422;SDS011;16399;51.686;8.684;2023-04-25T05:09:48;14.07;;;4.95;;
29422;SDS011;16399;51.686;8.684;2023-04-25T05:12:51;17.60;;;4.83;;
29422;SDS011;16399;51.686;8.684;2023-04-25T05:15:53;22.62;;;4.72;;
29422;SDS011;16399;51.686;8.684;2023-04-25T05:18:55;15.00;;;4.58;;
29422;SDS011;16399;51.686;8.684;2023-04-25T05:21:57;23.25;;;5.53;;
29422;SDS011;16399;51.686;8.684;2023-04-25T05:25:00;16.67;;;4.37;;
29422;SDS011;16399;51.686;8.684;2023-04-25T05:28:03;14.63;;;3.70;;
29422;SDS011;16399;51.686;8.684;2023-04-25T05:31:06;16.42;;;4.05;;
29422;SDS011;16399;51.686;8.684;2023-04-25T05:34:08;20.40;;;4.28;;
29422;SDS011;16399;51.686;8.684;2023-04-25T05:37:10;18.60;;;4.58;;
29422;SDS011;16399;51.686;8.684;2023-04-25T05:40:13;22.25;;;4.75;;
29422;SDS011;16399;51.686;8.684;2023-04-25T05:43:15;16.10;;;4.15;;
29422;SDS011;16399;51.686;8.684;2023-04-25T05:46:18;17.42;;;3.67;;
29422;SDS011;16399;51.686;8.684;2023-04-25T05:49:20;21.00;;;4.55;;
29422;SDS011;16399;51.686;8.684;2023-04-25T05:52:22;25.85;;;5.30;;
29422;SDS011;16399;51.686;8.684;2023-04-25T05:55:25;20.25;;;4.67;;
29422;SDS011;16399;51.686;8.684;2023-04-25T05:58:27;14.93;;;3.80;;
29422;SDS011;16399;51.686;8.684;2023-04-25T06:01:30;19.57;;;4.22;;
29422;SDS011;16399;51.686;8.684;2023-04-25T06:04:32;15.20;;;4.03;;
29422;SDS011;16399;51.686;8.684;2023-04-25T06:07:35;19.65;;;4.15;;
29422;SDS011;16399;51.686;8.684;2023-04-25T06:10:37;28.90;;;4.37;;
29422;SDS011;16399;51.686;8.684;2023-04-25T06:13:39;15.98;;;4.80;;
29422;SDS011;16399;51.686;8.684;2023-04-25T06:16:42;19.70;;;4.12;;
29422;SDS011;16399;51.686;8.684;2023-04-25T06:19:44;20.72;;;4.12;;
29422;SDS011;16399;51.686;8.684;2023-04-25T06:22:46;19.50;;;4.72;;
29422;SDS011;16399;51.686;8.684;2023-04-25T06:25:49;22.02;;;5.90;;
29422;SDS011;16399;51.686;8.684;2023-04-25T06:28:51;17.05;;;4.33;;
29422;SDS011;16399;51.686;8.684;2023-04-25T06:31:53;21.10;;;4.55;;
29422;SDS011;16399;51.686;8.684;2023-04-25T06:34:56;16.73;;;3.90;;
29422;SDS011;16399;51.686;8.684;2023-04-25T06:37:58;22.87;;;4.33;;
29422;SDS011;16399;51.686;8.684;2023-04-25T06:41:00;17.57;;;4.15;;
29422;SDS011;16399;51.686;8.684;2023-04-25T06:44:03;16.23;;;4.03;;
29422;SDS011;16399;51.686;8.684;2023-04-25T06:47:05;22.77;;;5.47;;
29422;SDS011;16399;51.686;8.684;2023-04-25T06:50:08;24.30;;;5.40;;
29422;SDS011;16399;51.686;8.684;2023-04-25T06:53:11;12.20;;;3.87;;
29422;SDS011;16399;51.686;8.684;2023-04-25T06:56:13;19.60;;;5.17;;
29422;SDS011;16399;51.686;8.684;2023-04-25T06:59:16;18.30;;;4.05;;
29422;SDS011;16399;51.686;8.684;2023-04-25T07:02:18;19.52;;;4.17;;
29422;SDS011;16399;51.686;8.684;2023-04-25T07:05:22;13.20;;;4.28;;
29422;SDS011;16399;51.686;8.684;2023-04-25T07:08:24;21.07;;;3.77;;
29422;SDS011;16399;51.686;8.684;2023-04-25T07:11:27;15.25;;;4.12;;
29422;SDS011;16399;51.686;8.684;2023-04-25T07:14:29;15.28;;;3.58;;
29422;SDS011;16399;51.686;8.684;2023-04-25T07:17:32;16.12;;;4.00;;
29422;SDS011;16399;51.686;8.684;2023-04-25T07:20:34;18.17;;;4.03;;
29422;SDS011;16399;51.686;8.684;2023-04-25T07:23:37;14.83;;;3.17;;
29422;SDS011;16399;51.686;8.684;2023-04-25T07:26:40;15.63;;;3.43;;
29422;SDS011;16399;51.686;8.684;2023-04-25T07:29:43;16.87;;;4.33;;
29422;SDS011;16399;51.686;8.684;2023-04-25T07:32:45;18.07;;;4.00;;
29422;SDS011;16399;51.686;8.684;2023-04-25T07:35:47;10.95;;;3.10;;
29422;SDS011;16399;51.686;8.684;2023-04-25T07:38:50;18.27;;;3.83;;
29422;SDS011;16399;51.686;8.684;2023-04-25T07:41:53;16.05;;;3.27;;
29422;SDS011;16399;51.686;8.684;2023-04-25T07:44:55;14.83;;;3.20;;
29422;SDS011;16399;51.686;8.684;2023-04-25T07:47:57;16.75;;;3.12;;
29422;SDS011;16399;51.686;8.684;2023-04-25T07:51:00;15.83;;;4.60;;
29422;SDS011;16399;51.686;8.684;2023-04-25T07:54:02;17.45;;;3.62;;
29422;SDS011;16399;51.686;8.684;2023-04-25T07:57:05;16.77;;;3.95;;
29422;SDS011;16399;51.686;8.684;2023-04-25T08:00:08;21.23;;;3.52;;
29422;SDS011;16399;51.686;8.684;2023-04-25T08:03:11;15.20;;;3.33;;
29422;SDS011;16399;51.686;8.684;2023-04-25T08:06:13;18.62;;;3.83;;
29422;SDS011;16399;51.686;8.684;2023-04-25T08:09:16;14.25;;;2.72;;
29422;SDS011;16399;51.686;8.684;2023-04-25T08:12:18;13.88;;;3.77;;
29422;SDS011;16399;51.686;8.684;2023-04-25T08:15:20;10.80;;;2.45;;
29422;SDS011;16399;51.686;8.684;2023-04-25T08:18:22;12.78;;;2.52;;
29422;SDS011;16399;51.686;8.684;2023-04-25T08:21:25;13.48;;;2.52;;
29422;SDS011;16399;51.686;8.684;2023-04-25T08:24:28;12.98;;;2.72;;
29422;SDS011;16399;51.686;8.684;2023-04-25T08:27:30;17.15;;;2.30;;
29422;SDS011;16399;51.686;8.684;2023-04-25T08:30:32;13.70;;;2.65;;
29422;SDS011;16399;51.686;8.684;2023-04-25T08:33:35;13.95;;;2.80;;
29422;SDS011;16399;51.686;8.684;2023-04-25T08:36:39;14.18;;;2.62;;
29422;SDS011;16399;51.686;8.684;2023-04-25T08:39:41;15.50;;;2.53;;
29422;SDS011;16399;51.686;8.684;2023-04-25T08:42:43;10.85;;;2.22;;
29422;SDS011;16399;51.686;8.684;2023-04-25T08:45:47;8.80;;;1.90;;
29422;SDS011;16399;51.686;8.684;2023-04-25T08:48:49;14.90;;;3.05;;
29422;SDS011;16399;51.686;8.684;2023-04-25T08:54:57;10.32;;;2.00;;
29422;SDS011;16399;51.686;8.684;2023-04-25T08:58:01;11.17;;;2.10;;
29422;SDS011;16399;51.686;8.684;2023-04-25T09:01:03;12.20;;;2.33;;
29422;SDS011;16399;51.686;8.684;2023-04-25T09:04:06;10.20;;;2.17;;
29422;SDS011;16399;51.686;8.684;2023-04-25T09:07:08;11.53;;;1.90;;
29422;SDS011;16399;51.686;8.684;2023-04-25T09:10:11;13.43;;;2.37;;
29422;SDS011;16399;51.686;8.684;2023-04-25T09:13:13;8.48;;;2.08;;
29422;SDS011;16399;51.686;8.684;2023-04-25T09:16:17;10.03;;;2.83;;
29422;SDS011;16399;51.686;8.684;2023-04-25T09:19:21;11.13;;;2.23;;
29422;SDS011;16399;51.686;8.684;2023-04-25T09:22:25;8.38;;;1.87;;
29422;SDS011;16399;51.686;8.684;2023-04-25T09:25:27;4.70;;;1.50;;
29422;SDS011;16399;51.686;8.684;2023-04-25T09:28:33;11.28;;;1.82;;
29422;SDS011;16399;51.686;8.684;2023-04-25T09:31:35;9.80;;;2.30;;
29422;SDS011;16399;51.686;8.684;2023-04-25T09:34:41;6.15;;;1.67;;
29422;SDS011;16399;51.686;8.684;2023-04-25T09:37:44;11.60;;;2.42;;
29422;SDS011;16399;51.686;8.684;2023-04-25T09:40:47;10.18;;;2.42;;
29422;SDS011;16399;51.686;8.684;2023-04-25T09:43:52;6.90;;;2.35;;
29422;SDS011;16399;51.686;8.684;2023-04-25T09:46:59;13.25;;;2.15;;
29422;SDS011;16399;51.686;8.684;2023-04-25T09:50:03;9.70;;;1.97;;
29422;SDS011;16399;51.686;8.684;2023-04-25T09:53:08;11.08;;;2.35;;
29422;SDS011;16399;51.686;8.684;2023-04-25T09:56:11;8.55;;;1.45;;
29422;SDS011;16399;51.686;8.684;2023-04-25T09:59:14;7.05;;;1.90;;
29422;SDS011;16399;51.686;8.684;2023-04-25T10:02:18;7.53;;;1.52;;
29422;SDS011;16399;51.686;8.684;2023-04-25T10:05:22;6.70;;;1.37;;
29422;SDS011;16399;51.686;8.684;2023-04-25T10:08:31;7.72;;;1.60;;
29422;SDS011;16399;51.686;8.684;2023-04-25T10:11:33;11.60;;;2.35;;
29422;SDS011;16399;51.686;8.684;2023-04-25T10:14:37;6.15;;;2.05;;
29422;SDS011;16399;51.686;8.684;2023-04-25T10:17:40;6.83;;;2.20;;
29422;SDS011;16399;51.686;8.684;2023-04-25T10:20:44;10.50;;;2.02;;
29422;SDS011;16399;51.686;8.684;2023-04-25T10:23:46;9.53;;;1.90;;
29422;SDS011;16399;51.686;8.684;2023-04-25T10:26:50;7.08;;;1.65;;
29422;SDS011;16399;51.686;8.684;2023-04-25T10:30:02;7.92;;;1.80;;
29422;SDS011;16399;51.686;8.684;2023-04-25T10:33:16;7.60;;;1.70;;
29422;SDS011;16399;51.686;8.684;2023-04-25T10:36:13;12.45;;;2.05;;
29422;SDS011;16399;51.686;8.684;2023-04-25T10:39:21;13.65;;;2.75;;
29422;SDS011;16399;51.686;8.684;2023-04-25T10:42:24;6.67;;;1.77;;
29422;SDS011;16399;51.686;8.684;2023-04-25T10:45:26;8.23;;;1.77;;
29422;SDS011;16399;51.686;8.684;2023-04-25T10:48:30;8.48;;;2.15;;
29422;SDS011;16399;51.686;8.684;2023-04-25T10:51:33;7.73;;;2.37;;
29422;SDS011;16399;51.686;8.684;2023-04-25T10:54:40;7.67;;;2.17;;
29422;SDS011;16399;51.686;8.684;2023-04-25T10:57:44;13.85;;;3.77;;
29422;SDS011;16399;51.686;8.684;2023-04-25T11:00:49;10.43;;;2.17;;
29422;SDS011;16399;51.686;8.684;2023-04-25T11:03:57;8.13;;;2.02;;
29422;SDS011;16399;51.686;8.684;2023-04-25T11:10:15;10.05;;;2.45;;
29422;SDS011;16399;51.686;8.684;2023-04-25T11:13:19;11.08;;;2.27;;
29422;SDS011;16399;51.686;8.684;2023-04-25T11:16:23;7.95;;;1.60;;
29422;SDS011;16399;51.686;8.684;2023-04-25T11:19:26;6.70;;;2.00;;
29422;SDS011;16399;51.686;8.684;2023-04-25T11:22:29;7.60;;;1.90;;
29422;SDS011;16399;51.686;8.684;2023-04-25T11:25:32;8.43;;;2.33;;
29422;SDS011;16399;51.686;8.684;2023-04-25T11:28:35;9.18;;;1.82;;
29422;SDS011;16399;51.686;8.684;2023-04-25T11:31:37;9.03;;;2.10;;
29422;SDS011;16399;51.686;8.684;2023-04-25T11:34:42;11.50;;;1.90;;
29422;SDS011;16399;51.686;8.684;2023-04-25T11:37:46;8.33;;;1.75;;
29422;SDS011;16399;51.686;8.684;2023-04-25T11:40:55;12.93;;;1.95;;
29422;SDS011;16399;51.686;8.684;2023-04-25T11:43:55;8.13;;;1.80;;
29422;SDS011;16399;51.686;8.684;2023-04-25T11:46:57;8.05;;;2.05;;
29422;SDS011;16399;51.686;8.684;2023-04-25T11:50:05;6.40;;;1.77;;
29422;SDS011;16399;51.686;8.684;2023-04-25T11:56:10;7.30;;;2.10;;
29422;SDS011;16399;51.686;8.684;2023-04-25T11:59:13;5.65;;;1.72;;
29422;SDS011;16399;51.686;8.684;2023-04-25T12:02:26;8.50;;;1.63;;
29422;SDS011;16399;51.686;8.684;2023-04-25T12:05:29;5.85;;;1.70;;
29422;SDS011;16399;51.686;8.684;2023-04-25T12:08:34;5.28;;;1.35;;
29422;SDS011;16399;51.686;8.684;2023-04-25T12:11:43;6.62;;;2.45;;
29422;SDS011;16399;51.686;8.684;2023-04-25T12:14:46;8.85;;;1.90;;
29422;SDS011;16399;51.686;8.684;2023-04-25T12:17:51;6.85;;;1.70;;
29422;SDS011;16399;51.686;8.684;2023-04-25T12:20:55;10.90;;;1.92;;
29422;SDS011;16399;51.686;8.684;2023-04-25T12:24:08;8.15;;;2.20;;
29422;SDS011;16399;51.686;8.684;2023-04-25T12:27:22;7.00;;;1.65;;
29422;SDS011;16399;51.686;8.684;2023-04-25T12:30:27;7.87;;;2.10;;
29422;SDS011;16399;51.686;8.684;2023-04-25T12:33:31;8.05;;;1.87;;
29422;SDS011;16399;51.686;8.684;2023-04-25T12:39:36;8.43;;;1.65;;
29422;SDS011;16399;51.686;8.684;2023-04-25T12:42:38;8.00;;;2.12;;
29422;SDS011;16399;51.686;8.684;2023-04-25T12:45:41;9.18;;;1.57;;
29422;SDS011;16399;51.686;8.684;2023-04-25T12:48:43;6.15;;;1.65;;
29422;SDS011;16399;51.686;8.684;2023-04-25T12:51:45;5.65;;;1.80;;
29422;SDS011;16399;51.686;8.684;2023-04-25T12:54:47;8.05;;;1.62;;
29422;SDS011;16399;51.686;8.684;2023-04-25T12:57:50;6.33;;;1.37;;
29422;SDS011;16399;51.686;8.684;2023-04-25T13:00:52;8.03;;;2.20;;
29422;SDS011;16399;51.686;8.684;2023-04-25T13:03:55;9.65;;;1.57;;
29422;SDS011;16399;51.686;8.684;2023-04-25T13:06:57;5.42;;;1.70;;
29422;SDS011;16399;51.686;8.684;2023-04-25T13:10:00;8.55;;;1.87;;
29422;SDS011;16399;51.686;8.684;2023-04-25T13:13:03;5.28;;;1.40;;
29422;SDS011;16399;51.686;8.684;2023-04-25T13:16:06;4.85;;;1.47;;
29422;SDS011;16399;51.686;8.684;2023-04-25T13:19:09;8.08;;;1.82;;
29422;SDS011;16399;51.686;8.684;2023-04-25T13:22:12;6.42;;;1.20;;
29422;SDS011;16399;51.686;8.684;2023-04-25T13:25:15;7.15;;;1.40;;
29422;SDS011;16399;51.686;8.684;2023-04-25T13:28:18;5.25;;;1.32;;
29422;SDS011;16399;51.686;8.684;2023-04-25T13:31:20;6.95;;;1.67;;
29422;SDS011;16399;51.686;8.684;2023-04-25T13:34:22;6.87;;;1.75;;
29422;SDS011;16399;51.686;8.684;2023-04-25T13:37:24;6.17;;;2.10;;
29422;SDS011;16399;51.686;8.684;2023-04-25T13:40:27;8.88;;;1.65;;
29422;SDS011;16399;51.686;8.684;2023-04-25T13:43:29;8.80;;;1.75;;
29422;SDS011;16399;51.686;8.684;2023-04-25T13:46:34;5.42;;;1.45;;
29422;SDS011;16399;51.686;8.684;2023-04-25T13:49:37;5.08;;;1.40;;
29422;SDS011;16399;51.686;8.684;2023-04-25T13:52:40;6.83;;;1.52;;
29422;SDS011;16399;51.686;8.684;2023-04-25T13:55:42;5.12;;;1.40;;
29422;SDS011;16399;51.686;8.684;2023-04-25T13:58:44;6.47;;;1.70;;
29422;SDS011;16399;51.686;8.684;2023-04-25T14:01:47;11.03;;;3.75;;
29422;SDS011;16399;51.686;8.684;2023-04-25T14:04:49;4.67;;;1.22;;
29422;SDS011;16399;51.686;8.684;2023-04-25T14:07:51;7.50;;;1.87;;
29422;SDS011;16399;51.686;8.684;2023-04-25T14:10:54;5.08;;;1.02;;
29422;SDS011;16399;51.686;8.684;2023-04-25T14:13:56;6.40;;;1.25;;
29422;SDS011;16399;51.686;8.684;2023-04-25T14:16:58;6.55;;;1.40;;
29422;SDS011;16399;51.686;8.684;2023-04-25T14:20:01;4.00;;;1.40;;
29422;SDS011;16399;51.686;8.684;2023-04-25T14:23:05;8.78;;;1.80;;
29422;SDS011;16399;51.686;8.684;2023-04-25T14:26:07;7.47;;;2.02;;
29422;SDS011;16399;51.686;8.684;2023-04-25T14:29:11;10.57;;;2.23;;
29422;SDS011;16399;51.686;8.684;2023-04-25T14:32:13;5.95;;;1.72;;
29422;SDS011;16399;51.686;8.684;2023-04-25T14:35:16;4.53;;;1.85;;
29422;SDS011;16399;51.686;8.684;2023-04-25T14:38:18;4.20;;;1.20;;
29422;SDS011;16399;51.686;8.684;2023-04-25T14:41:22;7.83;;;1.27;;
29422;SDS011;16399;51.686;8.684;2023-04-25T14:44:26;4.70;;;1.50;;
29422;SDS011;16399;51.686;8.684;2023-04-25T14:47:28;5.50;;;1.30;;
29422;SDS011;16399;51.686;8.684;2023-04-25T14:50:30;5.62;;;1.30;;
29422;SDS011;16399;51.686;8.684;2023-04-25T14:53:33;5.40;;;1.52;;
29422;SDS011;16399;51.686;8.684;2023-04-25T14:56:36;5.90;;;1.72;;
29422;SDS011;16399;51.686;8.684;2023-04-25T14:59:38;4.97;;;1.20;;
29422;SDS011;16399;51.686;8.684;2023-04-25T15:02:41;6.37;;;1.27;;
29422;SDS011;16399;51.686;8.684;2023-04-25T15:05:43;4.97;;;1.45;;
29422;SDS011;16399;51.686;8.684;2023-04-25T15:08:45;5.90;;;1.40;;
29422;SDS011;16399;51.686;8.684;2023-04-25T15:11:48;7.28;;;1.40;;
29422;SDS011;16399;51.686;8.684;2023-04-25T15:14:50;8.80;;;1.45;;
29422;SDS011;16399;51.686;8.684;2023-04-25T15:17:53;7.55;;;1.67;;
29422;SDS011;16399;51.686;8.684;2023-04-25T15:20:56;7.53;;;1.32;;
29422;SDS011;16399;51.686;8.684;2023-04-25T15:23:58;3.12;;;1.20;;
29422;SDS011;16399;51.686;8.684;2023-04-25T15:27:01;5.67;;;1.50;;
29422;SDS011;16399;51.686;8.684;2023-04-25T15:30:10;8.10;;;1.87;;
29422;SDS011;16399;51.686;8.684;2023-04-25T15:33:11;4.72;;;1.32;;
29422;SDS011;16399;51.686;8.684;2023-04-25T15:36:13;7.47;;;2.00;;
29422;SDS011;16399;51.686;8.684;2023-04-25T15:39:17;7.87;;;1.67;;
29422;SDS011;16399;51.686;8.684;2023-04-25T15:42:20;7.08;;;1.72;;
29422;SDS011;16399;51.686;8.684;2023-04-25T15:45:23;4.20;;;1.22;;
29422;SDS011;16399;51.686;8.684;2023-04-25T15:48:26;5.47;;;1.42;;
29422;SDS011;16399;51.686;8.684;2023-04-25T15:51:28;5.83;;;1.40;;
29422;SDS011;16399;51.686;8.684;2023-04-25T15:54:31;8.83;;;1.20;;
29422;SDS011;16399;51.686;8.684;2023-04-25T15:57:34;5.30;;;1.30;;
29422;SDS011;16399;51.686;8.684;2023-04-25T16:00:37;4.57;;;1.13;;
29422;SDS011;16399;51.686;8.684;2023-04-25T16:03:39;5.42;;;1.47;;
29422;SDS011;16399;51.686;8.684;2023-04-25T16:06:42;4.83;;;1.45;;
29422;SDS011;16399;51.686;8.684;2023-04-25T16:09:44;3.98;;;1.00;;
29422;SDS011;16399;51.686;8.684;2023-04-25T16:12:47;5.72;;;1.35;;
29422;SDS011;16399;51.686;8.684;2023-04-25T16:15:49;4.53;;;1.20;;
29422;SDS011;16399;51.686;8.684;2023-04-25T16:18:52;4.95;;;1.17;;
29422;SDS011;16399;51.686;8.684;2023-04-25T16:21:54;4.42;;;1.30;;
29422;SDS011;16399;51.686;8.684;2023-04-25T16:24:56;6.25;;;1.60;;
29422;SDS011;16399;51.686;8.684;2023-04-25T16:27:59;4.83;;;1.15;;
29422;SDS011;16399;51.686;8.684;2023-04-25T16:31:01;3.90;;;1.22;;
29422;SDS011;16399;51.686;8.684;2023-04-25T16:34:03;4.83;;;1.37;;
29422;SDS011;16399;51.686;8.684;2023-04-25T16:37:06;7.60;;;1.27;;
29422;SDS011;16399;51.686;8.684;2023-04-25T16:40:08;3.25;;;1.22;;
29422;SDS011;16399;51.686;8.684;2023-04-25T16:43:11;7.92;;;2.20;;
29422;SDS011;16399;51.686;8.684;2023-04-25T16:46:13;5.10;;;1.62;;
29422;SDS011;16399;51.686;8.684;2023-04-25T16:49:17;11.37;;;1.77;;
29422;SDS011;16399;51.686;8.684;2023-04-25T16:52:20;5.40;;;1.65;;
29422;SDS011;16399;51.686;8.684;2023-04-25T16:55:23;7.00;;;1.55;;
29422;SDS011;16399;51.686;8.684;2023-04-25T16:58:26;6.37;;;1.87;;
29422;SDS011;16399;51.686;8.684;2023-04-25T17:01:29;5.92;;;1.65;;
29422;SDS011;16399;51.686;8.684;2023-04-25T17:04:32;5.58;;;1.70;;
29422;SDS011;16399;51.686;8.684;2023-04-25T17:07:35;7.00;;;2.52;;
29422;SDS011;16399;51.686;8.684;2023-04-25T17:10:37;5.60;;;1.72;;
29422;SDS011;16399;51.686;8.684;2023-04-25T17:13:39;5.62;;;1.50;;
29422;SDS011;16399;51.686;8.684;2023-04-25T17:16:43;6.70;;;1.92;;
29422;SDS011;16399;51.686;8.684;2023-04-25T17:19:46;6.33;;;1.80;;
29422;SDS011;16399;51.686;8.684;2023-04-25T17:22:48;8.63;;;1.90;;
29422;SDS011;16399;51.686;8.684;2023-04-25T17:25:50;6.60;;;1.60;;
29422;SDS011;16399;51.686;8.684;2023-04-25T17:28:53;7.03;;;2.00;;
29422;SDS011;16399;51.686;8.684;2023-04-25T17:31:55;4.28;;;1.60;;
29422;SDS011;16399;51.686;8.684;2023-04-25T17:34:57;4.30;;;1.45;;
29422;SDS011;16399;51.686;8.684;2023-04-25T17:38:00;7.90;;;2.05;;
29422;SDS011;16399;51.686;8.684;2023-04-25T17:41:03;5.75;;;1.47;;
29422;SDS011;16399;51.686;8.684;2023-04-25T17:44:06;3.58;;;1.37;;
29422;SDS011;16399;51.686;8.684;2023-04-25T17:47:08;7.40;;;1.70;;
29422;SDS011;16399;51.686;8.684;2023-04-25T17:50:11;2.98;;;1.40;;
29422;SDS011;16399;51.686;8.684;2023-04-25T17:53:15;7.03;;;1.80;;
29422;SDS011;16399;51.686;8.684;2023-04-25T17:56:17;5.75;;;1.70;;
29422;SDS011;16399;51.686;8.684;2023-04-25T17:59:20;3.45;;;2.05;;
29422;SDS011;16399;51.686;8.684;2023-04-25T18:02:23;7.25;;;2.00;;
29422;SDS011;16399;51.686;8.684;2023-04-25T18:05:26;4.87;;;2.25;;
29422;SDS011;16399;51.686;8.684;2023-04-25T18:08:28;7.17;;;2.00;;
29422;SDS011;16399;51.686;8.684;2023-04-25T18:11:30;5.00;;;1.90;;
29422;SDS011;16399;51.686;8.684;2023-04-25T18:14:33;4.87;;;1.70;;
29422;SDS011;16399;51.686;8.684;2023-04-25T18:17:36;7.40;;;2.40;;
29422;SDS011;16399;51.686;8.684;2023-04-25T18:20:41;6.87;;;2.02;;
29422;SDS011;16399;51.686;8.684;2023-04-25T18:23:43;5.67;;;1.60;;
29422;SDS011;16399;51.686;8.684;2023-04-25T18:26:46;4.90;;;1.75;;